createdAt,value
2023-05-08T00:00:05.089Z,100.00
2023-05-08T00:02:51.733Z,100.00
2023-05-08T00:05:18.974Z,100.00
2023-05-08T00:07:45.763Z,100.00
2023-05-08T00:10:12.779Z,100.00
2023-05-08T00:12:39.959Z,100.00
2023-05-08T00:15:07.145Z,100.00
2023-05-08T00:17:34.706Z,100.00
2023-05-08T00:20:02.327Z,100.00
2023-05-08T00:22:28.811Z,100.00
2023-05-08T00:24:55.334Z,100.00
2023-05-08T00:27:21.800Z,100.00
2023-05-08T00:29:48.602Z,100.00
2023-05-08T00:32:15.975Z,100.00
2023-05-08T00:34:42.835Z,100.00
2023-05-08T00:37:09.310Z,100.00
2023-05-08T00:39:35.780Z,100.00
2023-05-08T00:42:02.464Z,100.00
2023-05-08T00:44:29.092Z,100.00
2023-05-08T00:46:56.037Z,100.00
2023-05-08T00:49:23.184Z,100.00
2023-05-08T00:51:52.419Z,100.00
2023-05-08T00:54:19.427Z,100.00
2023-05-08T00:56:47.104Z,100.00
2023-05-08T00:59:16.184Z,100.00
2023-05-08T01:01:43.608Z,100.00
2023-05-08T01:04:10.820Z,100.00
2023-05-08T01:06:38.073Z,100.00
2023-05-08T01:09:04.923Z,100.00
2023-05-08T01:11:37.720Z,100.00
2023-05-08T01:14:19.292Z,100.00
2023-05-08T01:17:11.785Z,100.00
2023-05-08T01:19:59.804Z,100.00
2023-05-08T01:22:44.864Z,100.00
2023-05-08T01:25:44.028Z,100.00
2023-05-08T01:28:32.536Z,100.00
2023-05-08T01:31:11.818Z,100.00
2023-05-08T01:33:46.052Z,100.00
2023-05-08T01:36:31.255Z,100.00
2023-05-08T01:39:09.598Z,100.00
2023-05-08T01:41:39.412Z,100.00
2023-05-08T01:44:13.286Z,100.00
2023-05-08T01:46:39.828Z,100.00
2023-05-08T01:49:12.137Z,100.00
2023-05-08T01:51:58.086Z,100.00
2023-05-08T01:54:28.356Z,100.00
2023-05-08T01:56:57.882Z,100.00
2023-05-08T01:59:28.165Z,100.00
2023-05-08T02:01:57.188Z,100.00
2023-05-08T02:04:25.643Z,100.00
2023-05-08T02:06:53.435Z,100.00
2023-05-08T02:09:22.516Z,100.00
2023-05-08T02:11:50.575Z,100.00
2023-05-08T02:14:19.935Z,100.00
2023-05-08T02:16:49.969Z,100.00
2023-05-08T02:19:18.666Z,100.00
2023-05-08T02:21:47.047Z,100.00
2023-05-08T02:24:14.888Z,100.00
2023-05-08T02:26:43.898Z,100.00
2023-05-08T02:29:11.277Z,100.00
2023-05-08T02:31:39.611Z,100.00
2023-05-08T02:34:08.316Z,100.00
2023-05-08T02:36:36.521Z,100.00
2023-05-08T02:39:03.679Z,100.00
2023-05-08T02:41:33.338Z,100.00
2023-05-08T02:44:00.132Z,100.00
2023-05-08T02:46:41.655Z,100.00
2023-05-08T02:49:20.288Z,100.00
2023-05-08T02:51:59.928Z,100.00
2023-05-08T02:54:36.517Z,100.00
2023-05-08T02:57:18.699Z,100.00
2023-05-08T02:59:56.833Z,100.00
2023-05-08T03:02:32.250Z,100.00
2023-05-08T03:05:32.606Z,100.00
2023-05-08T03:08:03.245Z,100.00
2023-05-08T03:10:33.881Z,100.00
2023-05-08T03:13:04.698Z,100.00
2023-05-08T03:15:40.889Z,100.00
2023-05-08T03:18:12.473Z,100.00
2023-05-08T03:20:43.285Z,100.00
2023-05-08T03:23:13.178Z,100.00
2023-05-08T03:25:43.370Z,100.00
2023-05-08T03:28:11.317Z,100.00
2023-05-08T03:30:40.971Z,100.00
2023-05-08T03:33:08.535Z,100.00
2023-05-08T03:35:37.374Z,100.00
2023-05-08T03:38:08.283Z,100.00
2023-05-08T03:40:39.069Z,100.00
2023-05-08T03:43:07.937Z,100.00
2023-05-08T03:45:38.984Z,100.00
2023-05-08T03:48:07.190Z,100.00
2023-05-08T03:50:35.757Z,100.00
2023-05-08T03:53:03.302Z,100.00
2023-05-08T03:55:33.087Z,100.00
2023-05-08T03:58:06.170Z,100.00
2023-05-08T04:00:47.854Z,100.00
2023-05-08T04:03:24.847Z,100.00
2023-05-08T04:06:22.726Z,100.00
2023-05-08T04:08:55.315Z,100.00
2023-05-08T04:11:30.391Z,100.00
2023-05-08T04:14:03.742Z,100.00
2023-05-08T04:16:37.107Z,100.00
2023-05-08T04:19:10.883Z,100.00
2023-05-08T04:21:42.801Z,100.00
2023-05-08T04:24:14.781Z,100.00
2023-05-08T04:26:42.993Z,100.00
2023-05-08T04:29:10.549Z,100.00
2023-05-08T04:31:39.798Z,100.00
2023-05-08T04:34:09.164Z,100.00
2023-05-08T04:36:35.909Z,100.00
2023-05-08T04:39:02.477Z,100.00
2023-05-08T04:41:29.303Z,100.00
2023-05-08T04:43:56.006Z,100.00
2023-05-08T04:46:24.406Z,100.00
2023-05-08T04:48:51.016Z,100.00
2023-05-08T04:51:17.764Z,100.00
2023-05-08T04:53:44.645Z,100.00
2023-05-08T04:56:11.265Z,100.00
2023-05-08T04:58:38.029Z,100.00
2023-05-08T05:01:04.985Z,100.00
2023-05-08T05:03:31.626Z,100.00
2023-05-08T05:05:59.377Z,100.00
2023-05-08T05:08:26.758Z,100.00
2023-05-08T05:10:53.526Z,100.00
2023-05-08T05:13:20.582Z,100.00
2023-05-08T05:15:47.313Z,100.00
2023-05-08T05:18:13.807Z,100.00
2023-05-08T05:20:40.563Z,100.00
2023-05-08T05:23:07.301Z,100.00
2023-05-08T05:25:34.780Z,100.00
2023-05-08T05:28:02.057Z,100.00
2023-05-08T05:30:28.922Z,100.00
2023-05-08T05:32:55.985Z,100.00
2023-05-08T05:35:24.968Z,100.00
2023-05-08T05:37:52.739Z,100.00
2023-05-08T05:40:20.143Z,100.00
2023-05-08T05:42:53.422Z,100.00
2023-05-08T05:45:20.068Z,100.00
2023-05-08T05:47:53.864Z,100.00
2023-05-08T05:50:23.461Z,100.00
2023-05-08T05:52:50.028Z,100.00
2023-05-08T05:55:17.074Z,100.00
2023-05-08T05:57:44.078Z,100.00
2023-05-08T06:00:11.270Z,100.00
2023-05-08T06:02:39.170Z,100.00
2023-05-08T06:05:07.035Z,100.00
2023-05-08T06:07:33.557Z,100.00
2023-05-08T06:10:00.368Z,100.00
2023-05-08T06:12:28.337Z,100.00
2023-05-08T06:14:55.149Z,100.00
2023-05-08T06:17:22.160Z,100.00
2023-05-08T06:19:53.934Z,100.00
2023-05-08T06:22:23.218Z,100.00
2023-05-08T06:24:53.410Z,100.00
2023-05-08T06:27:23.296Z,100.00
2023-05-08T06:29:53.373Z,100.00
2023-05-08T06:32:20.996Z,100.00
2023-05-08T06:34:48.389Z,100.00
2023-05-08T06:37:15.360Z,100.00
2023-05-08T06:39:41.801Z,100.00
2023-05-08T06:42:08.859Z,100.00
2023-05-08T06:44:36.269Z,100.00
2023-05-08T06:47:03.295Z,100.00
2023-05-08T06:49:29.932Z,100.00
2023-05-08T06:51:57.976Z,100.00
2023-05-08T06:54:25.046Z,100.00
2023-05-08T06:56:54.014Z,100.00
2023-05-08T06:59:23.106Z,100.00
2023-05-08T07:01:50.102Z,100.00
2023-05-08T07:04:16.662Z,100.00
2023-05-08T07:06:43.241Z,100.00
2023-05-08T07:09:10.644Z,100.00
2023-05-08T07:11:37.579Z,100.00
2023-05-08T07:14:04.569Z,100.00
2023-05-08T07:16:31.054Z,100.00
2023-05-08T07:18:57.700Z,100.00
2023-05-08T07:21:24.964Z,100.00
2023-05-08T07:23:53.623Z,100.00
2023-05-08T07:26:20.067Z,100.00
2023-05-08T07:28:47.326Z,100.00
2023-05-08T07:31:14.037Z,100.00
2023-05-08T07:33:40.874Z,100.00
2023-05-08T07:36:08.199Z,100.00
2023-05-08T07:38:34.635Z,100.00
2023-05-08T07:41:02.052Z,100.00
2023-05-08T07:43:28.864Z,100.00
2023-05-08T07:45:55.471Z,100.00
2023-05-08T07:48:22.134Z,100.00
2023-05-08T07:50:51.908Z,100.00
2023-05-08T07:53:18.353Z,100.00
2023-05-08T07:55:44.775Z,100.00
2023-05-08T07:58:11.412Z,100.00
2023-05-08T08:00:37.840Z,100.00
2023-05-08T08:03:05.154Z,100.00
2023-05-08T08:05:31.929Z,100.00
2023-05-08T08:07:58.792Z,98.47
2023-05-08T08:10:25.896Z,99.05
2023-05-08T08:12:52.288Z,100.00
2023-05-08T08:15:19.430Z,100.00
2023-05-08T08:17:46.643Z,100.00
2023-05-08T08:20:13.769Z,100.00
2023-05-08T08:22:40.659Z,100.00
2023-05-08T08:25:07.820Z,99.37
2023-05-08T08:27:34.525Z,98.25
2023-05-08T08:30:15.161Z,98.96
2023-05-08T08:32:43.995Z,98.91
2023-05-08T08:35:11.261Z,99.11
2023-05-08T08:37:38.114Z,97.36
2023-05-08T08:40:05.425Z,95.84
2023-05-08T08:42:33.885Z,96.68
2023-05-08T08:45:01.120Z,96.53
2023-05-08T08:47:29.728Z,96.23
2023-05-08T08:49:58.902Z,98.10
2023-05-08T08:52:56.343Z,97.54
2023-05-08T08:55:23.682Z,98.79
2023-05-08T08:57:59.141Z,97.97
2023-05-08T09:00:30.918Z,97.22
2023-05-08T09:02:58.058Z,98.75
2023-05-08T09:05:26.361Z,98.24
2023-05-08T09:07:56.345Z,98.76
2023-05-08T09:10:24.494Z,98.82
2023-05-08T09:12:51.776Z,98.68
2023-05-08T09:15:18.473Z,99.34
2023-05-08T09:17:45.027Z,99.97
2023-05-08T09:20:14.852Z,99.09
2023-05-08T09:22:43.590Z,99.85
2023-05-08T09:25:10.630Z,99.88
2023-05-08T09:27:37.450Z,99.33
2023-05-08T09:30:05.789Z,100.00
2023-05-08T09:32:34.318Z,100.00
2023-05-08T09:35:02.279Z,100.00
2023-05-08T09:37:30.024Z,100.00
2023-05-08T09:40:21.658Z,99.72
2023-05-08T09:42:50.175Z,98.67
2023-05-08T09:45:33.221Z,99.38
2023-05-08T09:47:59.868Z,98.62
2023-05-08T09:50:27.672Z,98.79
2023-05-08T09:52:54.270Z,100.00
2023-05-08T09:55:20.940Z,99.82
2023-05-08T09:57:58.857Z,98.24
2023-05-08T10:00:27.317Z,97.96
2023-05-08T10:03:02.807Z,97.46
2023-05-08T10:05:32.382Z,97.31
2023-05-08T10:08:19.034Z,97.94
2023-05-08T10:10:45.967Z,99.54
2023-05-08T10:13:12.619Z,99.37
2023-05-08T10:15:41.647Z,99.99
2023-05-08T10:18:11.833Z,100.00
2023-05-08T10:20:40.888Z,100.00
2023-05-08T10:23:11.396Z,100.00
2023-05-08T10:25:44.621Z,100.00
2023-05-08T10:28:36.620Z,100.00
2023-05-08T10:31:05.527Z,100.00
2023-05-08T10:33:34.949Z,100.00
2023-05-08T10:36:02.605Z,100.00
2023-05-08T10:38:31.062Z,100.00
2023-05-08T10:41:01.087Z,100.00
2023-05-08T10:43:30.937Z,100.00
2023-05-08T10:46:02.231Z,100.00
2023-05-08T10:48:43.799Z,100.00
2023-05-08T10:51:20.439Z,99.01
2023-05-08T10:53:59.223Z,97.87
2023-05-08T10:56:27.225Z,98.43
2023-05-08T10:58:58.810Z,97.91
2023-05-08T11:01:26.478Z,99.48
2023-05-08T11:03:55.531Z,96.39
2023-05-08T11:06:44.551Z,96.50
2023-05-08T11:09:19.769Z,95.66
2023-05-08T11:11:54.763Z,96.75
2023-05-08T11:14:23.346Z,95.34
2023-05-08T11:17:02.144Z,96.14
2023-05-08T11:19:29.394Z,94.62
2023-05-08T11:22:12.938Z,94.11
2023-05-08T11:24:41.347Z,94.86
2023-05-08T11:27:07.893Z,93.98
2023-05-08T11:29:36.084Z,94.52
2023-05-08T11:32:02.656Z,93.10
2023-05-08T11:34:46.038Z,92.86
2023-05-08T11:37:24.082Z,92.63
2023-05-08T11:39:50.901Z,90.65
2023-05-08T11:42:29.617Z,94.81
2023-05-08T11:45:06.575Z,90.01
2023-05-08T11:47:42.454Z,89.07
2023-05-08T11:50:10.492Z,88.52
2023-05-08T11:52:40.315Z,88.40
2023-05-08T11:55:11.623Z,89.38
2023-05-08T11:57:39.289Z,90.01
2023-05-08T12:00:10.892Z,87.01
2023-05-08T12:02:42.561Z,85.48
2023-05-08T12:05:11.110Z,85.56
2023-05-08T12:07:46.150Z,85.22
2023-05-08T12:10:14.210Z,86.48
2023-05-08T12:12:43.328Z,85.74
2023-05-08T12:15:15.010Z,84.73
2023-05-08T12:17:42.569Z,82.93
2023-05-08T12:20:15.414Z,81.89
2023-05-08T12:22:43.640Z,83.29
2023-05-08T12:25:11.852Z,81.14
2023-05-08T12:27:39.063Z,82.58
2023-05-08T12:30:11.053Z,80.90
2023-05-08T12:32:39.396Z,81.92
2023-05-08T12:35:08.165Z,79.81
2023-05-08T12:37:36.492Z,80.64
2023-05-08T12:40:04.455Z,80.56
2023-05-08T12:42:49.674Z,81.30
2023-05-08T12:45:24.942Z,78.76
2023-05-08T12:47:53.071Z,76.10
2023-05-08T12:50:21.190Z,74.19
2023-05-08T12:52:51.358Z,71.11
2023-05-08T12:55:24.806Z,70.55
2023-05-08T12:58:00.691Z,71.51
2023-05-08T13:00:38.784Z,70.03
2023-05-08T13:03:06.451Z,71.32
2023-05-08T13:05:35.514Z,71.82
2023-05-08T13:08:07.309Z,69.83
2023-05-08T13:10:49.378Z,71.10
2023-05-08T13:13:18.680Z,69.10
2023-05-08T13:15:45.630Z,68.96
2023-05-08T13:18:12.325Z,69.25
2023-05-08T13:20:39.551Z,69.79
2023-05-08T13:23:08.917Z,69.97
2023-05-08T13:25:37.122Z,71.30
2023-05-08T13:28:04.795Z,68.90
2023-05-08T13:30:31.711Z,70.72
2023-05-08T13:32:58.648Z,71.53
2023-05-08T13:35:25.489Z,71.90
2023-05-08T13:37:52.276Z,71.14
2023-05-08T13:40:18.999Z,73.33
2023-05-08T13:42:45.444Z,75.79
2023-05-08T13:45:14.702Z,73.28
2023-05-08T13:47:46.122Z,73.46
2023-05-08T13:50:15.812Z,74.55
2023-05-08T13:52:42.819Z,72.72
2023-05-08T13:55:11.373Z,76.08
2023-05-08T13:57:38.978Z,73.22
2023-05-08T14:00:07.055Z,74.41
2023-05-08T14:02:35.172Z,73.97
2023-05-08T14:05:01.914Z,72.47
2023-05-08T14:07:29.983Z,72.89
2023-05-08T14:09:56.613Z,73.51
2023-05-08T14:12:23.135Z,75.00
2023-05-08T14:14:49.763Z,74.81
2023-05-08T14:17:16.154Z,74.18
2023-05-08T14:19:43.248Z,73.85
2023-05-08T14:22:09.854Z,74.64
2023-05-08T14:24:36.438Z,74.76
2023-05-08T14:27:05.858Z,73.07
2023-05-08T14:29:36.126Z,72.97
2023-05-08T14:32:02.715Z,73.88
2023-05-08T14:34:29.590Z,73.95
2023-05-08T14:36:56.289Z,70.51
2023-05-08T14:39:22.840Z,69.45
2023-05-08T14:42:10.384Z,69.28
2023-05-08T14:44:36.721Z,70.39
2023-05-08T14:47:03.539Z,71.18
2023-05-08T14:49:37.338Z,72.93
2023-05-08T14:52:05.990Z,73.00
2023-05-08T14:54:32.859Z,74.32
2023-05-08T14:56:59.679Z,71.66
2023-05-08T14:59:26.355Z,72.33
2023-05-08T15:01:52.783Z,69.67
2023-05-08T15:04:19.587Z,70.58
2023-05-08T15:06:46.067Z,73.28
2023-05-08T15:09:12.771Z,74.86
2023-05-08T15:11:40.205Z,75.34
2023-05-08T15:14:06.975Z,75.09
2023-05-08T15:16:33.710Z,75.60
2023-05-08T15:19:00.640Z,75.87
2023-05-08T15:21:28.496Z,72.94
2023-05-08T15:23:56.279Z,71.37
2023-05-08T15:26:23.294Z,70.83
2023-05-08T15:28:49.796Z,70.88
2023-05-08T15:31:17.039Z,68.63
2023-05-08T15:33:44.908Z,69.67
2023-05-08T15:36:13.314Z,69.41
2023-05-08T15:38:41.217Z,68.68
2023-05-08T15:41:07.838Z,67.91
2023-05-08T15:43:34.552Z,70.38
2023-05-08T15:46:01.085Z,71.57
2023-05-08T15:48:27.740Z,71.25
2023-05-08T15:50:54.421Z,69.56
2023-05-08T15:53:20.950Z,70.12
2023-05-08T15:55:47.670Z,69.96
2023-05-08T15:58:14.344Z,69.09
2023-05-08T16:00:45.244Z,69.36
2023-05-08T16:03:12.543Z,71.72
2023-05-08T16:05:39.446Z,72.27
2023-05-08T16:08:07.398Z,73.26
2023-05-08T16:10:34.093Z,73.18
2023-05-08T16:13:00.564Z,72.69
2023-05-08T16:15:26.928Z,74.49
2023-05-08T16:17:53.833Z,74.60
2023-05-08T16:20:20.376Z,75.24
2023-05-08T16:22:47.460Z,75.76
2023-05-08T16:25:14.815Z,75.58
2023-05-08T16:27:42.059Z,74.72
2023-05-08T16:30:09.672Z,76.78
2023-05-08T16:32:36.767Z,76.45
2023-05-08T16:35:03.548Z,77.62
2023-05-08T16:37:30.044Z,79.24
2023-05-08T16:39:56.515Z,77.66
2023-05-08T16:42:22.990Z,77.20
2023-05-08T16:44:49.444Z,77.01
2023-05-08T16:47:16.516Z,77.55
2023-05-08T16:49:43.225Z,78.49
2023-05-08T16:52:09.889Z,78.52
2023-05-08T16:54:36.630Z,82.68
2023-05-08T16:57:03.278Z,83.19
2023-05-08T16:59:29.894Z,86.51
2023-05-08T17:01:56.811Z,86.27
2023-05-08T17:04:23.375Z,84.38
2023-05-08T17:06:49.915Z,84.77
2023-05-08T17:09:18.333Z,83.89
2023-05-08T17:11:45.565Z,84.24
2023-05-08T17:14:13.211Z,85.04
2023-05-08T17:16:39.758Z,84.17
2023-05-08T17:19:06.679Z,82.63
2023-05-08T17:21:33.121Z,85.60
2023-05-08T17:24:00.594Z,84.38
2023-05-08T17:26:27.358Z,83.83
2023-05-08T17:28:53.937Z,86.09
2023-05-08T17:31:20.749Z,86.32
2023-05-08T17:33:47.828Z,86.61
2023-05-08T17:36:15.199Z,87.97
2023-05-08T17:38:45.758Z,86.18
2023-05-08T17:41:13.117Z,87.92
2023-05-08T17:43:40.461Z,88.82
2023-05-08T17:46:07.713Z,89.82
2023-05-08T17:48:34.508Z,90.68
2023-05-08T17:51:02.583Z,90.06
2023-05-08T17:53:30.643Z,91.96
2023-05-08T17:55:57.674Z,91.83
2023-05-08T17:58:25.140Z,91.24
2023-05-08T18:00:52.009Z,91.96
2023-05-08T18:03:19.150Z,92.88
2023-05-08T18:05:46.656Z,94.18
2023-05-08T18:08:13.776Z,95.07
2023-05-08T18:10:40.786Z,95.03
2023-05-08T18:13:07.876Z,95.07
2023-05-08T18:15:38.902Z,95.18
2023-05-08T18:18:05.748Z,95.97
2023-05-08T18:20:32.534Z,96.75
2023-05-08T18:22:58.906Z,96.45
2023-05-08T18:25:25.698Z,96.50
2023-05-08T18:27:52.245Z,95.77
2023-05-08T18:30:18.958Z,96.62
2023-05-08T18:32:46.444Z,96.44
2023-05-08T18:35:13.938Z,96.89
2023-05-08T18:37:40.540Z,97.76
2023-05-08T18:40:08.092Z,98.88
2023-05-08T18:42:34.898Z,99.48
2023-05-08T18:45:02.941Z,99.79
2023-05-08T18:47:29.442Z,99.81
2023-05-08T18:49:57.707Z,98.40
2023-05-08T18:52:24.373Z,98.95
2023-05-08T18:54:50.909Z,100.00
2023-05-08T18:57:17.761Z,99.40
2023-05-08T18:59:44.501Z,100.00
2023-05-08T19:02:10.963Z,100.00
2023-05-08T19:04:37.590Z,100.00
2023-05-08T19:07:04.028Z,100.00
2023-05-08T19:09:30.512Z,100.00
2023-05-08T19:11:57.178Z,100.00
2023-05-08T19:14:23.698Z,100.00
2023-05-08T19:16:51.458Z,100.00
2023-05-08T19:19:18.215Z,100.00
2023-05-08T19:21:45.600Z,100.00
2023-05-08T19:24:13.940Z,100.00
2023-05-08T19:26:41.208Z,100.00
2023-05-08T19:29:07.714Z,100.00
2023-05-08T19:31:34.350Z,100.00
2023-05-08T19:34:01.023Z,100.00
2023-05-08T19:36:28.308Z,100.00
2023-05-08T19:38:55.221Z,100.00
2023-05-08T19:41:21.796Z,100.00
2023-05-08T19:43:48.908Z,100.00
2023-05-08T19:46:15.807Z,100.00
2023-05-08T19:48:42.977Z,100.00
2023-05-08T19:51:11.575Z,100.00
2023-05-08T19:53:39.701Z,100.00
2023-05-08T19:56:06.214Z,100.00
2023-05-08T19:58:32.936Z,100.00
2023-05-08T20:00:59.654Z,100.00
2023-05-08T20:03:26.347Z,100.00
2023-05-08T20:05:53.532Z,100.00
2023-05-08T20:08:20.300Z,100.00
2023-05-08T20:10:48.926Z,100.00
2023-05-08T20:13:17.145Z,100.00
2023-05-08T20:15:45.115Z,100.00
2023-05-08T20:18:12.262Z,100.00
2023-05-08T20:20:40.243Z,100.00
2023-05-08T20:23:08.048Z,100.00
2023-05-08T20:25:34.787Z,100.00
2023-05-08T20:28:01.934Z,100.00
2023-05-08T20:30:28.798Z,100.00
2023-05-08T20:32:55.611Z,100.00
2023-05-08T20:35:23.956Z,100.00
2023-05-08T20:37:51.348Z,100.00
2023-05-08T20:40:18.073Z,100.00
2023-05-08T20:42:45.097Z,100.00
2023-05-08T20:45:13.018Z,100.00
2023-05-08T20:47:40.062Z,100.00
2023-05-08T20:50:07.382Z,100.00
2023-05-08T20:52:35.361Z,100.00
2023-05-08T20:55:05.424Z,100.00
2023-05-08T20:57:31.826Z,100.00
2023-05-08T20:59:58.527Z,100.00
2023-05-08T21:02:25.509Z,100.00
2023-05-08T21:04:52.838Z,100.00
2023-05-08T21:07:20.261Z,100.00
2023-05-08T21:09:46.837Z,100.00
2023-05-08T21:12:13.438Z,100.00
2023-05-08T21:14:39.846Z,100.00
2023-05-08T21:17:06.264Z,100.00
2023-05-08T21:19:32.892Z,100.00
2023-05-08T21:21:59.589Z,100.00
2023-05-08T21:24:26.256Z,100.00
2023-05-08T21:26:53.347Z,100.00
2023-05-08T21:29:20.024Z,100.00
2023-05-08T21:31:46.556Z,100.00
2023-05-08T21:34:13.423Z,100.00
2023-05-08T21:36:39.868Z,100.00
2023-05-08T21:39:07.161Z,100.00
2023-05-08T21:41:33.887Z,100.00
2023-05-08T21:44:00.498Z,100.00
2023-05-08T21:46:27.451Z,100.00
2023-05-08T21:48:54.002Z,100.00
2023-05-08T21:51:20.544Z,100.00
2023-05-08T21:53:48.115Z,100.00
2023-05-08T21:56:16.463Z,100.00
2023-05-08T21:58:43.094Z,100.00
2023-05-08T22:01:09.565Z,100.00
2023-05-08T22:03:36.895Z,100.00
2023-05-08T22:06:03.549Z,100.00
2023-05-08T22:08:30.257Z,100.00
2023-05-08T22:10:57.769Z,100.00
2023-05-08T22:13:24.547Z,100.00
2023-05-08T22:15:51.339Z,100.00
2023-05-08T22:18:19.633Z,100.00
2023-05-08T22:20:46.824Z,100.00
2023-05-08T22:23:13.272Z,100.00
2023-05-08T22:25:39.782Z,100.00
2023-05-08T22:28:06.487Z,100.00
2023-05-08T22:30:33.658Z,100.00
2023-05-08T22:33:00.813Z,100.00
2023-05-08T22:35:27.636Z,100.00
2023-05-08T22:37:54.575Z,100.00
2023-05-08T22:40:22.175Z,100.00
2023-05-08T22:42:51.539Z,100.00
2023-05-08T22:45:18.480Z,100.00
2023-05-08T22:47:45.412Z,100.00
2023-05-08T22:50:13.849Z,100.00
2023-05-08T22:52:40.551Z,100.00
2023-05-08T22:55:07.781Z,100.00
2023-05-08T22:57:34.399Z,100.00
2023-05-08T23:00:01.476Z,100.00
2023-05-08T23:02:33.189Z,100.00
2023-05-08T23:05:02.031Z,100.00
2023-05-08T23:07:30.149Z,100.00
2023-05-08T23:09:56.633Z,100.00
2023-05-08T23:12:23.592Z,100.00
2023-05-08T23:14:50.080Z,100.00
2023-05-08T23:17:16.925Z,100.00
2023-05-08T23:19:45.254Z,100.00
2023-05-08T23:22:12.007Z,100.00
2023-05-08T23:24:38.609Z,100.00
2023-05-08T23:27:05.233Z,100.00
2023-05-08T23:29:33.001Z,100.00
2023-05-08T23:32:00.281Z,100.00
2023-05-08T23:34:26.980Z,100.00
2023-05-08T23:36:54.688Z,100.00
2023-05-08T23:39:23.029Z,100.00
2023-05-08T23:41:49.488Z,100.00
2023-05-08T23:44:17.328Z,100.00
2023-05-08T23:46:43.975Z,100.00
2023-05-08T23:49:10.943Z,100.00
2023-05-08T23:51:37.495Z,100.00
2023-05-08T23:54:05.865Z,100.00
2023-05-08T23:56:32.906Z,100.00
2023-05-08T23:58:59.697Z,100.00
